Serene Lakes, California
Current Conditions -  °F | °C
As of 11:52 AM on Saturday 25 Oct 2014 (Local Time) from KBLU Reporting Station
Moderate Rain Moderate Rain  
Wind Chill: 31°   Ceiling: 600
Heat Index: 40°   Visibility: 4mi
Dew Point: 36°   Wind: 16mph
Humidity: 86%   Direction: 190°S
Pressure: 30.14"   Gusts: 32mph
Location:  39.4261°N, 120.475°W
Report Text: KBLU 251852Z AUTO 19014G28KT 160V230 4SM RA BR BKN006 OVC014 04/02 A3014 RMK AO2 PK WND 20029/1827 SLP170 P0022 T00440022
Loading
Personal Weather Stations






























Interactive Weather Map
Tropical Storm Tracking
New forecast layout! Learn more

10-Day Weather Forecast

Advertisements
Track Severe Weather on mobile